Time;durP1;ratioP1;P1;durP2;ratioP2;P2;SDS_P1;SDS_P2;PMS_P1;PMS_P2;Temp;Humidity;BMP_temperature;BMP_pressure;BME280_temperature;BME280_humidity;BME280_pressure;Samples;Min_cycle;Max_cycle;Signal;HPM_P1;HPM_P2
2022/06/18 00:00:55;;;;;;;4.27;2.30;;;;;;;19.39;64.08;99812.34;4974428;28;1824474;-58
2022/06/18 00:03:27;;;;;;;4.60;2.10;;;;;;;19.40;63.64;99800.81;5038329;28;20065;-58
2022/06/18 00:05:59;;;;;;;5.20;2.90;;;;;;;19.50;63.66;99803.75;5038757;28;20280;-58
2022/06/18 00:08:32;;;;;;;89.03;9.33;;;;;;;19.34;63.20;99804.66;5038622;28;20363;-59
2022/06/18 00:13:50;;;;;;;12.57;2.87;;;;;;;19.22;63.36;99818.66;5037502;28;20282;-58
2022/06/18 00:16:22;;;;;;;3.87;2.63;;;;;;;19.28;63.69;99815.63;5038321;28;20307;-58
2022/06/18 00:18:55;;;;;;;7.10;2.60;;;;;;;19.30;63.52;99813.75;5038136;28;20330;-57
2022/06/18 00:21:27;;;;;;;5.17;2.63;;;;;;;19.33;63.54;99810.91;5036903;28;20370;-58
2022/06/18 00:23:58;;;;;;;5.27;2.53;;;;;;;19.42;63.10;99819.25;5032668;28;20623;-59
2022/06/18 00:26:29;;;;;;;3.83;1.97;;;;;;;19.57;62.74;99821.00;5026867;28;20359;-58
2022/06/18 00:28:59;;;;;;;55.40;4.80;;;;;;;19.82;62.54;99815.94;5019088;28;20339;-58
2022/06/18 00:31:32;;;;;;;7.90;2.03;;;;;;;19.97;61.16;99810.63;5021335;28;20305;-58
2022/06/18 00:34:04;;;;;;;4.47;1.87;;;;;;;20.01;60.69;99814.78;5018675;28;20293;-58
2022/06/18 00:36:37;;;;;;;86.90;7.97;;;;;;;19.96;60.80;99806.25;5018605;28;20284;-58
2022/06/18 00:39:09;;;;;;;6.90;1.90;;;;;;;20.04;60.75;99811.91;5029357;28;20351;-58
2022/06/18 00:41:41;;;;;;;5.70;2.07;;;;;;;20.11;60.35;99809.75;5036175;28;20294;-59
2022/06/18 00:44:21;;;;;;;6.63;2.10;;;;;;;20.03;60.14;99804.94;5032101;28;20566;-58
2022/06/18 00:47:03;;;;;;;8.03;2.20;;;;;;;19.89;60.04;99807.56;5031817;28;20315;-59
2022/06/18 00:49:42;;;;;;;24.97;3.00;;;;;;;19.79;60.91;99805.53;5027653;28;20591;-59
2022/06/18 00:52:16;;;;;;;;;;;;;;;19.72;60.77;99806.84;5025362;28;20822;-59
2022/06/18 00:54:51;;;;;;;4.43;2.10;;;;;;;19.60;61.63;99759.84;5028496;28;19916;-59
2022/06/18 00:57:28;;;;;;;7.43;1.90;;;;;;;20.22;60.96;99802.81;5027913;28;20280;-60
2022/06/18 01:00:06;;;;;;;42.00;5.80;;;;;;;20.42;60.55;99787.44;5031618;28;20288;-59
2022/06/18 01:02:40;;;;;;;15.73;2.50;;;;;;;20.70;59.62;99796.28;5025471;28;20299;-58
2022/06/18 01:05:23;;;;;;;20.07;3.10;;;;;;;20.98;59.01;99790.81;5027794;28;20565;-59
2022/06/18 01:07:57;;;;;;;5.23;2.00;;;;;;;21.43;58.72;99786.00;5027891;28;20312;-59
2022/06/18 01:10:32;;;;;;;3.83;2.00;;;;;;;21.54;56.83;99787.91;5027971;28;20915;-58
2022/06/18 01:13:05;;;;;;;4.93;2.30;;;;;;;21.42;56.82;99763.06;5028266;28;20698;-58
2022/06/18 01:15:37;;;;;;;5.57;1.90;;;;;;;21.59;56.77;99776.97;5027069;28;20495;-58
2022/06/18 01:18:08;;;;;;;7.03;1.73;;;;;;;21.71;56.62;99768.13;5026262;28;20296;-59
2022/06/18 01:20:47;;;;;;;6.17;2.17;;;;;;;21.98;56.21;99782.13;5025159;28;20299;-58
2022/06/18 01:23:23;;;;;;;6.83;1.80;;;;;;;22.17;56.00;99770.19;5024990;28;20347;-58
2022/06/18 01:25:56;;;;;;;7.27;2.30;;;;;;;22.69;56.17;99774.38;5023419;28;20306;-58
2022/06/18 01:28:28;;;;;;;49.80;5.57;;;;;;;22.80;54.28;99779.72;5017042;28;20507;-59
2022/06/18 01:30:59;;;;;;;12.23;1.90;;;;;;;22.61;53.73;99784.72;5017248;28;20276;-58
2022/06/18 01:33:30;;;;;;;22.53;2.73;;;;;;;22.36;54.46;99770.53;5017057;28;20352;-58
2022/06/18 01:36:03;;;;;;;6.57;1.80;;;;;;;22.24;54.09;99770.59;5017542;28;20057;-58
2022/06/18 01:38:35;;;;;;;10.63;1.80;;;;;;;22.20;54.44;99746.03;5017299;28;20041;-57
2022/06/18 01:44:03;;;;;;;8.10;1.83;;;;;;;22.51;53.76;99768.56;5031627;28;20053;-59
2022/06/18 01:46:36;;;;;;;13.83;1.47;;;;;;;22.45;53.48;99763.72;5024405;28;20115;-58
2022/06/18 01:49:09;;;;;;;6.33;1.57;;;;;;;22.75;53.84;99768.56;5030240;28;20053;-59
2022/06/18 01:51:42;;;;;;;7.17;1.90;;;;;;;22.88;53.88;99764.97;5026860;28;20053;-58
2022/06/18 01:54:22;;;;;;;8.40;1.40;;;;;;;22.93;53.84;99758.34;5025144;28;20332;-59
2022/06/18 01:56:58;;;;;;;10.23;1.50;;;;;;;22.89;53.62;99756.00;5026731;28;20138;-59
2022/06/18 01:59:33;;;;;;;6.90;1.93;;;;;;;22.79;53.05;99751.41;5026123;28;20065;-59
2022/06/18 02:02:04;;;;;;;30.30;3.80;;;;;;;22.83;53.62;99752.84;5026683;28;20336;-58
2022/06/18 02:04:36;;;;;;;54.23;3.63;;;;;;;22.87;54.14;99752.66;5026150;28;20069;-59
2022/06/18 02:07:08;;;;;;;9.13;1.90;;;;;;;22.74;54.67;99721.59;5024879;28;20046;-59
2022/06/18 02:09:42;;;;;;;3.07;1.50;;;;;;;23.06;53.61;99747.63;5027683;28;20113;-59
2022/06/18 02:12:18;;;;;;;10.77;1.93;;;;;;;23.00;52.90;99742.78;5025956;28;20046;-58
2022/06/18 02:14:53;;;;;;;3.53;1.10;;;;;;;22.87;53.18;99731.34;5029765;28;20114;-58
2022/06/18 02:17:25;;;;;;;5.13;1.60;;;;;;;22.67;53.33;99741.66;5025369;28;20041;-58
2022/06/18 02:20:00;;;;;;;5.73;1.87;;;;;;;22.47;53.44;99737.00;5024636;28;20045;-58
2022/06/18 02:22:33;;;;;;;3.57;1.40;;;;;;;22.39;54.43;99738.41;5024710;28;20128;-58
2022/06/18 02:25:04;;;;;;;4.30;1.70;;;;;;;22.42;54.70;99736.47;5025959;28;20121;-59
2022/06/18 02:27:37;;;;;;;6.53;1.90;;;;;;;22.35;54.98;99731.59;5026680;28;20068;-58
2022/06/18 02:30:15;;;;;;;5.67;1.93;;;;;;;22.37;55.35;99729.69;5025854;28;20286;-60
2022/06/18 02:32:55;;;;;;;7.00;1.80;;;;;;;22.55;55.66;99737.25;5028369;28;20384;-58
2022/06/18 02:35:27;;;;;;;7.50;1.60;;;;;;;22.70;54.85;99736.09;5030798;28;20523;-59
2022/06/18 02:37:58;;;;;;;24.40;3.10;;;;;;;22.37;54.47;99686.25;5027629;28;20077;-59
2022/06/18 02:40:32;;;;;;;6.87;2.40;;;;;;;22.65;54.63;99732.94;5029758;28;20046;-59
2022/06/18 02:43:05;;;;;;;13.80;2.50;;;;;;;22.57;54.89;99735.34;5026604;28;20109;-59
2022/06/18 02:45:39;;;;;;;9.10;2.50;;;;;;;22.39;54.59;99717.09;5029830;28;20519;-58
2022/06/18 02:48:10;;;;;;;7.70;2.47;;;;;;;22.50;54.96;99728.78;5027059;28;20057;-58
2022/06/18 02:50:43;;;;;;;5.00;2.40;;;;;;;22.41;55.74;99693.03;5025043;28;20108;-58
2022/06/18 02:53:15;;;;;;;10.20;2.17;;;;;;;22.65;54.82;99727.63;5031428;28;20300;-59
2022/06/18 02:55:48;;;;;;;6.57;2.40;;;;;;;22.86;54.42;99716.28;5031259;28;20108;-59
2022/06/18 02:58:23;;;;;;;3.63;2.27;;;;;;;22.91;54.16;99712.31;5027882;28;20117;-59
2022/06/18 03:00:56;;;;;;;3.37;2.13;;;;;;;22.99;53.46;99720.63;5033290;28;20065;-59
2022/06/18 03:03:29;;;;;;;6.47;2.27;;;;;;;22.92;53.87;99718.50;5028506;28;20077;-58
2022/06/18 03:06:00;;;;;;;51.13;5.17;;;;;;;22.89;54.03;99721.38;5029851;28;20049;-58
2022/06/18 03:08:33;;;;;;;18.77;2.87;;;;;;;22.78;54.44;99711.56;5036135;28;20084;-58
2022/06/18 03:13:54;;;;;;;7.72;2.45;;;;;;;22.71;55.49;99713.81;5030213;28;20049;-58
2022/06/18 03:16:26;;;;;;;18.87;4.47;;;;;;;22.76;55.30;99716.16;5028364;28;20045;-58
2022/06/18 03:18:59;;;;;;;16.70;3.30;;;;;;;22.92;55.53;99713.19;5027453;28;20248;-58
2022/06/18 03:21:36;;;;;;;8.97;2.10;;;;;;;23.02;53.95;99708.88;5030816;28;20049;-59
2022/06/18 03:24:08;;;;;;;7.83;2.40;;;;;;;22.91;54.63;99695.47;5029407;28;20284;-58
2022/06/18 03:26:39;;;;;;;7.27;2.43;;;;;;;22.92;54.82;99702.53;5029239;28;20061;-59
2022/06/18 03:29:18;;;;;;;60.00;5.03;;;;;;;23.02;54.47;99708.88;5031968;28;20299;-59
2022/06/18 03:31:48;;;;;;;7.87;2.17;;;;;;;22.86;54.61;99687.84;5033136;28;20091;-58
2022/06/18 03:34:19;;;;;;;6.80;2.37;;;;;;;22.88;55.11;99711.72;5029211;28;20053;-58
2022/06/18 03:36:50;;;;;;;15.50;2.83;;;;;;;22.73;55.55;99705.72;5029233;28;20108;-59
2022/06/18 03:39:21;;;;;;;8.13;2.17;;;;;;;22.59;56.13;99701.47;5027873;28;20052;-58
2022/06/18 03:41:52;;;;;;;7.03;2.40;;;;;;;22.42;56.26;99709.88;5027015;28;20544;-58
2022/06/18 03:44:25;;;;;;;10.23;2.63;;;;;;;22.19;56.73;99704.41;5029439;28;20121;-59
2022/06/18 03:46:56;;;;;;;11.10;2.33;;;;;;;21.88;57.21;99705.78;5034331;28;20240;-58
2022/06/18 03:49:28;;;;;;;8.87;2.57;;;;;;;21.63;58.25;99680.09;5027549;28;20054;-58
2022/06/18 03:52:00;;;;;;;7.33;2.40;;;;;;;21.70;58.07;99713.25;5031827;28;20235;-59
2022/06/18 03:54:31;;;;;;;27.27;3.80;;;;;;;21.57;58.49;99712.41;5028373;28;20296;-59
2022/06/18 03:57:02;;;;;;;30.43;3.73;;;;;;;21.26;59.27;99693.28;5029929;28;20355;-58
2022/06/18 03:59:35;;;;;;;12.80;2.80;;;;;;;21.44;59.62;99708.00;5038957;28;20357;-59
2022/06/18 04:02:07;;;;;;;16.80;3.47;;;;;;;21.50;59.72;99712.88;5036977;28;20626;-59
2022/06/18 04:04:37;;;;;;;29.63;3.83;;;;;;;21.30;59.19;99716.03;5044350;28;20311;-59
2022/06/18 04:07:11;;;;;;;21.73;3.90;;;;;;;21.13;60.25;99719.00;5044457;28;20304;-59
2022/06/18 04:09:43;;;;;;;10.07;3.30;;;;;;;21.03;60.62;99729.41;5044052;28;20312;-59
2022/06/18 04:12:13;;;;;;;16.57;3.87;;;;;;;21.03;60.44;99727.59;5044693;28;20292;-60
2022/06/18 04:14:46;;;;;;;9.30;3.40;;;;;;;21.09;60.25;99734.28;5043968;28;20280;-59
2022/06/18 04:17:17;;;;;;;13.33;3.40;;;;;;;21.21;60.47;99716.66;5044130;28;20280;-59
2022/06/18 04:19:48;;;;;;;7.10;3.17;;;;;;;21.23;60.51;99710.28;5044363;28;20319;-59
2022/06/18 04:22:19;;;;;;;16.00;3.83;;;;;;;21.39;59.29;99720.75;5044057;28;20288;-59
2022/06/18 04:24:50;;;;;;;11.20;3.47;;;;;;;21.20;59.98;99704.34;5044273;28;20487;-59
2022/06/18 04:27:21;;;;;;;48.90;6.20;;;;;;;21.13;59.86;99724.31;5043325;28;20287;-59
2022/06/18 04:29:53;;;;;;;8.67;3.40;;;;;;;20.86;59.64;99706.66;5043098;28;20306;-59
2022/06/18 04:32:24;;;;;;;13.83;3.93;;;;;;;20.88;60.69;99718.03;5044113;28;20383;-59
2022/06/18 04:34:54;;;;;;;19.67;4.07;;;;;;;20.93;61.04;99723.03;5044202;28;20290;-58
2022/06/18 04:37:26;;;;;;;18.97;4.50;;;;;;;20.95;60.91;99727.28;5044010;28;20280;-59
2022/06/18 04:39:57;;;;;;;11.67;3.53;;;;;;;21.10;60.07;99712.94;5043767;28;20286;-59
2022/06/18 04:42:28;;;;;;;14.60;5.30;;;;;;;21.16;60.59;99710.81;5044010;28;20304;-59
2022/06/18 04:45:00;;;;;;;18.63;4.10;;;;;;;21.20;60.10;99712.31;5043941;28;20288;-58
2022/06/18 04:47:31;;;;;;;18.70;5.00;;;;;;;21.16;60.51;99721.47;5042854;28;20295;-58
2022/06/18 04:50:02;;;;;;;34.53;5.67;;;;;;;21.12;60.31;99718.16;5043748;28;20314;-58
2022/06/18 04:52:33;;;;;;;10.33;4.30;;;;;;;21.05;60.69;99701.78;5043899;28;20314;-58
2022/06/18 04:55:03;;;;;;;8.70;4.63;;;;;;;21.06;60.94;99722.06;5043705;28;20363;-58
2022/06/18 04:57:34;;;;;;;13.20;4.63;;;;;;;20.83;60.72;99722.81;5043658;28;20280;-58
2022/06/18 05:00:08;;;;;;;13.07;4.77;;;;;;;20.44;61.32;99728.00;5043533;28;20318;-57
2022/06/18 05:02:39;;;;;;;32.13;5.80;;;;;;;20.10;62.56;99702.81;5042423;28;20315;-58
2022/06/18 05:05:17;;;;;;;15.47;5.33;;;;;;;19.95;63.10;99725.84;5043346;28;20280;-58
2022/06/18 05:07:48;;;;;;;55.17;7.60;;;;;;;19.85;63.84;99718.59;5043296;28;20287;-59
2022/06/18 05:10:19;;;;;;;10.93;4.00;;;;;;;19.85;64.49;99724.75;5041274;28;20653;-58
2022/06/18 05:12:52;;;;;;;13.57;5.37;;;;;;;19.91;64.68;99728.78;5041403;28;20276;-58
2022/06/18 05:15:24;;;;;;;20.57;5.53;;;;;;;19.70;64.70;99678.84;5042402;28;20287;-58
2022/06/18 05:17:55;;;;;;;71.87;8.30;;;;;;;19.89;64.74;99723.56;5043312;28;20296;-58
2022/06/18 05:20:26;;;;;;;17.47;6.63;;;;;;;19.93;64.67;99737.50;5043440;28;20586;-59
2022/06/18 05:22:56;;;;;;;15.60;5.47;;;;;;;19.82;65.23;99731.09;5042916;28;20986;-59
2022/06/18 05:25:27;;;;;;;16.97;5.97;;;;;;;19.86;65.27;99730.91;5042338;28;20288;-59
2022/06/18 05:27:58;;;;;;;19.03;5.53;;;;;;;19.69;65.91;99740.75;5041067;28;20288;-59
2022/06/18 05:30:30;;;;;;;15.13;5.77;;;;;;;19.58;66.47;99735.25;5042863;28;20308;-59
2022/06/18 05:33:01;;;;;;;13.63;5.73;;;;;;;19.39;66.17;99733.75;5042728;28;20288;-59
2022/06/18 05:35:33;;;;;;;17.30;5.60;;;;;;;19.12;67.12;99730.09;5042868;28;20284;-59
2022/06/18 05:38:04;;;;;;;10.47;5.53;;;;;;;18.95;67.31;99721.38;5043407;28;20484;-58
2022/06/18 05:40:35;;;;;;;20.97;5.93;;;;;;;18.94;68.16;99732.91;5042305;28;20387;-59
2022/06/18 05:43:05;;;;;;;10.23;5.17;;;;;;;18.87;68.07;99725.41;5041424;28;20336;-58
2022/06/18 05:45:38;;;;;;;15.17;5.60;;;;;;;18.70;68.51;99721.94;5040588;28;20375;-61
2022/06/18 05:48:13;;;;;;;32.07;5.77;;;;;;;18.55;69.15;99722.84;5043013;28;20283;-59
2022/06/18 05:50:44;;;;;;;13.23;5.90;;;;;;;18.42;69.44;99720.06;5042984;28;20308;-59
2022/06/18 05:53:14;;;;;;;50.83;8.07;;;;;;;18.28;69.88;99712.91;5042622;28;20276;-59
2022/06/18 05:55:46;;;;;;;13.77;5.73;;;;;;;18.11;70.56;99719.13;5042713;28;20524;-59
2022/06/18 05:58:17;;;;;;;16.97;5.60;;;;;;;18.16;71.40;99718.03;5042843;28;21333;-59
2022/06/18 06:00:49;;;;;;;16.40;5.13;;;;;;;18.06;72.36;99718.53;5042706;28;20306;-59
2022/06/18 06:03:19;;;;;;;11.70;5.13;;;;;;;17.94;73.19;99729.78;5042498;28;20287;-59
2022/06/18 06:05:50;;;;;;;16.40;5.10;;;;;;;17.84;74.22;99723.31;5042726;28;20291;-59
2022/06/18 06:08:21;;;;;;;9.53;4.80;;;;;;;17.74;74.49;99732.66;5040748;28;20606;-60
2022/06/18 06:13:39;;;;;;;13.80;5.67;;;;;;;17.49;75.38;99733.97;5042236;28;20388;-59
2022/06/18 06:16:11;;;;;;;14.67;5.50;;;;;;;17.34;75.66;99732.16;5042192;28;20351;-59
2022/06/18 06:18:42;;;;;;;10.00;5.23;;;;;;;17.28;75.98;99735.13;5042594;28;20276;-58
2022/06/18 06:21:13;;;;;;;11.57;5.60;;;;;;;17.16;75.93;99732.19;5042632;28;20284;-58
2022/06/18 06:23:43;;;;;;;11.47;5.37;;;;;;;17.15;76.85;99733.13;5042238;28;21224;-59
2022/06/18 06:26:20;;;;;;;19.83;13.00;;;;;;;17.14;76.54;99720.84;5043755;28;20318;-59
2022/06/18 06:28:51;;;;;;;23.27;11.33;;;;;;;16.97;76.78;99694.47;5046236;28;20309;-58
2022/06/18 06:31:23;;;;;;;13.47;6.00;;;;;;;17.00;76.63;99723.38;5046453;28;21038;-59
2022/06/18 06:33:54;;;;;;;9.67;7.23;;;;;;;16.85;77.06;99721.47;5046170;28;20500;-59
2022/06/18 06:36:25;;;;;;;8.13;6.03;;;;;;;16.72;77.30;99727.34;5046452;28;20362;-60
2022/06/18 06:39:02;;;;;;;10.90;5.83;;;;;;;16.63;78.02;99726.97;5046590;28;20295;-58
2022/06/18 06:41:34;;;;;;;14.70;6.03;;;;;;;16.72;78.51;99724.69;5046257;28;20290;-58
2022/06/18 06:44:05;;;;;;;17.87;6.57;;;;;;;16.63;78.67;99717.28;5046203;28;20280;-59
2022/06/18 06:46:38;;;;;;;18.93;11.33;;;;;;;16.65;79.06;99730.38;5041682;28;20701;-59
2022/06/18 06:49:08;;;;;;;16.13;8.40;;;;;;;16.71;79.18;99723.00;5043745;28;20658;-61
2022/06/18 06:51:40;;;;;;;16.13;11.97;;;;;;;16.71;79.04;99730.06;5042477;28;20646;-59
2022/06/18 06:54:11;;;;;;;36.70;13.77;;;;;;;16.67;79.03;99718.81;5044313;28;20463;-59
2022/06/18 06:59:29;;;;;;;9.03;6.73;;;;;;;16.69;79.05;99722.22;5042440;28;20316;-63
2022/06/18 07:02:03;;;;;;;15.27;11.57;;;;;;;16.73;79.30;99726.44;5041364;28;20590;-61
2022/06/18 07:04:34;;;;;;;19.23;12.07;;;;;;;16.76;79.26;99722.78;5044012;28;20744;-61
2022/06/18 07:07:05;;;;;;;18.33;11.23;;;;;;;16.67;79.43;99729.34;5044829;28;20606;-62
2022/06/18 07:09:35;;;;;;;18.47;8.13;;;;;;;16.69;79.89;99732.78;5044048;28;20302;-60
2022/06/18 07:12:08;;;;;;;15.60;10.40;;;;;;;16.66;79.49;99725.03;5043772;28;20571;-60
2022/06/18 07:14:39;;;;;;;16.43;7.57;;;;;;;16.65;79.59;99731.25;5041924;28;20291;-61
2022/06/18 07:17:19;;;;;;;16.67;9.70;;;;;;;16.66;79.40;99727.66;5044136;28;20303;-60
2022/06/18 07:19:50;;;;;;;10.73;6.50;;;;;;;16.63;79.17;99727.81;5042630;28;20280;-60
2022/06/18 07:22:21;;;;;;;3.23;2.33;;;;;;;16.33;79.10;99731.03;5041418;28;20292;-59
2022/06/18 07:24:51;;;;;;;11.47;7.80;;;;;;;16.10;79.24;99739.19;5043866;28;20303;-60
2022/06/18 07:27:22;;;;;;;10.57;3.57;;;;;;;15.88;80.19;99737.56;5043358;28;21301;-59
2022/06/18 07:29:53;;;;;;;3.63;2.20;;;;;;;15.82;80.69;99744.91;5043653;28;20284;-61
2022/06/18 07:32:26;;;;;;;6.00;3.37;;;;;;;15.63;81.00;99742.25;5042307;28;20314;-60
2022/06/18 07:34:57;;;;;;;6.20;3.20;;;;;;;15.51;81.22;99744.50;5043246;28;20308;-61
2022/06/18 07:37:30;;;;;;;15.83;4.00;;;;;;;15.45;81.15;99736.88;5043425;28;20316;-58
2022/06/18 07:40:01;;;;;;;10.40;3.27;;;;;;;15.43;81.24;99738.72;5043017;28;21150;-60
2022/06/18 07:42:32;;;;;;;9.07;2.70;;;;;;;15.35;80.94;99732.94;5043060;28;20287;-61
2022/06/18 07:45:03;;;;;;;20.00;4.23;;;;;;;15.23;81.32;99730.84;5043917;28;20287;-60
2022/06/18 07:47:35;;;;;;;6.03;3.17;;;;;;;15.25;81.70;99728.97;5041371;28;20294;-59
2022/06/18 07:50:07;;;;;;;4.70;2.40;;;;;;;15.25;81.77;99723.72;5040850;28;20557;-60
2022/06/18 07:52:37;;;;;;;4.13;2.87;;;;;;;15.19;81.82;99722.22;5042080;28;20304;-59
2022/06/18 07:55:12;;;;;;;4.73;2.40;;;;;;;15.12;82.04;99706.78;5043660;28;21246;-59
2022/06/18 07:57:43;;;;;;;3.73;2.20;;;;;;;15.15;82.35;99725.94;5042436;28;20286;-59
2022/06/18 08:00:16;;;;;;;4.57;2.40;;;;;;;15.16;82.54;99725.00;5043193;28;20479;-59
2022/06/18 08:02:51;;;;;;;4.50;2.50;;;;;;;15.14;82.66;99710.19;5042408;28;20594;-60
2022/06/18 08:05:25;;;;;;;6.30;4.40;;;;;;;15.04;83.23;99686.91;5041918;28;20276;-60
2022/06/18 08:07:56;;;;;;;7.77;5.07;;;;;;;15.29;83.11;99712.16;5042358;28;20647;-60
2022/06/18 08:10:51;;;;;;;5.37;4.60;;;;;;;15.23;83.23;99704.53;5042254;28;20609;-60
2022/06/18 08:13:23;;;;;;;10.53;4.83;;;;;;;15.16;83.74;99708.34;5041943;28;20306;-59
2022/06/18 08:15:53;;;;;;;6.40;3.83;;;;;;;15.16;83.96;99693.41;5042703;28;20296;-59
2022/06/18 08:18:26;;;;;;;6.80;4.43;;;;;;;15.27;83.80;99711.34;5041200;28;20386;-61
2022/06/18 08:21:02;;;;;;;9.13;5.30;;;;;;;15.24;83.71;99706.22;5041115;28;20354;-60
2022/06/18 08:23:33;;;;;;;6.20;4.43;;;;;;;15.28;83.68;99713.09;5041322;28;20367;-60
2022/06/18 08:26:04;;;;;;;3.90;3.17;;;;;;;15.28;83.59;99710.44;5043293;28;20722;-60
2022/06/18 08:28:37;;;;;;;3.23;2.93;;;;;;;15.25;83.54;99715.81;5043297;28;20355;-60
2022/06/18 08:31:09;;;;;;;3.73;2.77;;;;;;;15.25;83.54;99716.72;5040054;28;20307;-60
2022/06/18 08:33:41;;;;;;;6.53;2.50;;;;;;;15.29;83.59;99709.50;5039679;28;20847;-61
2022/06/18 08:36:16;;;;;;;5.33;2.77;;;;;;;15.20;83.61;99699.38;5041924;28;20292;-61
2022/06/18 08:38:49;;;;;;;4.77;2.90;;;;;;;15.14;83.52;99710.19;5042389;28;20327;-61
2022/06/18 08:41:49;;;;;;;19.20;6.60;;;;;;;15.14;83.64;99715.47;5041879;28;20355;-61
2022/06/18 08:45:01;;;;;;;19.83;13.20;;;;;;;15.14;83.89;99718.09;5041474;28;20509;-61
2022/06/18 08:47:54;;;;;;;59.03;5.53;;;;;;;15.02;83.77;99720.31;5007968;28;20535;-61
2022/06/18 08:50:41;;;;;;;6.70;3.97;;;;;;;14.98;84.01;99729.28;5038905;28;20300;-61
2022/06/18 08:53:39;;;;;;;6.70;3.13;;;;;;;14.93;84.30;99723.38;5041570;28;20308;-60
2022/06/18 08:56:14;;;;;;;6.63;2.97;;;;;;;14.94;84.53;99727.69;5042503;28;20291;-62
2022/06/18 08:58:58;;;;;;;3.37;2.80;;;;;;;14.88;84.60;99730.59;5041976;28;20040;-60
2022/06/18 09:01:33;;;;;;;5.83;2.90;;;;;;;14.80;85.17;99716.91;5041316;28;20599;-59
2022/06/18 09:04:17;;;;;;;4.63;3.10;;;;;;;14.86;85.35;99724.53;5041469;28;20284;-59
2022/06/18 09:07:11;;;;;;;4.88;3.70;;;;;;;14.82;85.15;99725.59;5040646;28;20296;-59
2022/06/18 09:09:53;;;;;;;7.97;4.47;;;;;;;14.71;85.74;99717.31;5042004;28;20062;-61
2022/06/18 09:12:29;;;;;;;5.73;4.70;;;;;;;14.66;86.09;99726.25;5041452;28;20322;-60
2022/06/18 09:15:04;;;;;;;7.03;5.50;;;;;;;14.69;86.31;99724.41;5040449;28;20297;-60
2022/06/18 09:17:40;;;;;;;6.57;4.70;;;;;;;14.66;86.37;99725.38;5042094;28;20284;-60
2022/06/18 09:20:17;;;;;;;5.77;4.37;;;;;;;14.51;86.43;99721.59;5041533;28;20099;-60
2022/06/18 09:22:54;;;;;;;8.27;6.47;;;;;;;14.50;86.73;99724.25;5041171;28;20284;-60
2022/06/18 09:25:30;;;;;;;8.20;6.67;;;;;;;14.50;87.47;99730.38;5041082;28;20696;-60
2022/06/18 09:28:05;;;;;;;9.13;6.23;;;;;;;14.49;87.53;99728.69;5039845;28;20296;-61
2022/06/18 09:30:40;;;;;;;12.00;7.83;;;;;;;14.52;87.71;99712.75;5040542;28;20291;-59
2022/06/18 09:33:17;;;;;;;5.72;4.60;;;;;;;14.56;87.98;99719.66;5042468;28;20303;-60
2022/06/18 09:35:53;;;;;;;7.60;5.50;;;;;;;14.48;87.88;99711.22;5042974;28;20056;-60
2022/06/18 09:38:32;;;;;;;9.90;7.73;;;;;;;14.56;88.19;99719.66;5043393;28;20474;-61
2022/06/18 09:41:05;;;;;;;;;;;;;;;14.53;87.78;99719.78;5043165;28;20311;-60
2022/06/18 09:43:44;;;;;;;7.73;4.90;;;;;;;14.45;87.96;99716.56;5041393;28;20200;-60
2022/06/18 09:46:21;;;;;;;6.63;4.95;;;;;;;14.43;88.17;99718.44;5042696;28;20298;-60
2022/06/18 09:48:52;;;;;;;6.90;5.50;;;;;;;14.44;88.28;99720.13;5042841;28;20060;-60
2022/06/18 09:51:33;;;;;;;6.50;4.60;;;;;;;14.44;88.57;99720.13;5041953;28;20311;-61
2022/06/18 09:54:08;;;;;;;6.75;4.78;;;;;;;14.46;88.57;99718.28;5042514;28;20352;-60
2022/06/18 09:56:44;;;;;;;10.27;8.47;;;;;;;14.51;88.79;99716.34;5042979;28;20144;-60
2022/06/18 09:59:20;;;;;;;22.90;20.50;;;;;;;14.55;88.69;99712.69;5040745;28;20355;-59
2022/06/18 10:01:53;;;;;;;20.47;8.03;;;;;;;14.57;88.57;99716.09;5043633;28;20295;-59
2022/06/18 10:07:25;;;;;;;6.97;5.23;;;;;;;14.49;88.05;99696.28;5043417;28;20092;-60
2022/06/18 10:10:02;;;;;;;6.63;5.03;;;;;;;14.56;87.97;99709.13;5044654;28;20271;-59
2022/06/18 10:12:35;;;;;;;7.70;5.80;;;;;;;14.57;88.04;99700.31;5045055;28;20119;-61
2022/06/18 10:15:08;;;;;;;6.37;4.63;;;;;;;14.53;87.86;99706.66;5044491;28;20112;-60
2022/06/18 10:17:52;;;;;;;4.87;4.37;;;;;;;14.43;88.00;99697.41;5044622;28;20391;-60
2022/06/18 10:20:33;;;;;;;6.57;5.30;;;;;;;14.34;88.15;99703.03;5042951;28;20364;-60
2022/06/18 10:23:15;;;;;;;9.52;4.97;;;;;;;14.35;88.43;99705.59;5043914;28;20283;-60
2022/06/18 10:25:53;;;;;;;7.90;5.20;;;;;;;14.27;88.69;99685.78;5043782;28;20128;-61
2022/06/18 10:28:31;;;;;;;7.70;5.03;;;;;;;14.33;88.36;99702.16;5044745;28;20061;-60
2022/06/18 10:31:14;;;;;;;9.82;4.93;;;;;;;14.24;88.61;99702.53;5044581;28;20065;-61
2022/06/18 10:33:54;;;;;;;7.60;5.72;;;;;;;14.23;88.80;99695.59;5043856;28;20061;-60
2022/06/18 10:36:32;;;;;;;9.90;5.40;;;;;;;14.18;88.97;99698.38;5043133;28;20072;-60
2022/06/18 10:39:21;;;;;;;11.43;7.63;;;;;;;14.14;89.06;99702.03;5046658;28;20049;-59
2022/06/18 10:42:07;;;;;;;10.07;7.13;;;;;;;14.15;88.93;99703.78;5045605;28;20233;-60
2022/06/18 10:44:49;;;;;;;9.90;7.20;;;;;;;14.02;88.92;99702.53;5045139;28;20359;-61
2022/06/18 10:47:20;;;;;;;14.45;7.85;;;;;;;14.02;89.46;99707.78;5045300;28;20674;-61
2022/06/18 10:50:02;;;;;;;12.98;7.65;;;;;;;13.38;89.61;99628.00;5045067;28;20088;-60
2022/06/18 10:52:33;;;;;;;19.15;9.43;;;;;;;13.98;89.70;99721.97;5045172;28;20053;-60
2022/06/18 10:55:10;;;;;;;18.27;9.20;;;;;;;13.92;89.82;99711.69;5046286;28;20053;-60
2022/06/18 10:57:50;;;;;;;17.65;8.80;;;;;;;13.94;89.80;99726.47;5045985;28;20099;-60
2022/06/18 11:00:23;;;;;;;19.63;9.70;;;;;;;13.96;89.84;99723.81;5045499;28;20975;-61
2022/06/18 11:02:56;;;;;;;21.83;10.18;;;;;;;13.95;89.67;99725.56;5044238;28;20051;-61
2022/06/18 11:05:31;;;;;;;27.80;11.93;;;;;;;13.87;89.87;99719.75;5045254;28;20084;-59
2022/06/18 11:08:05;;;;;;;21.85;10.77;;;;;;;13.91;89.86;99715.25;5045541;28;20053;-61
2022/06/18 11:10:40;;;;;;;23.60;11.13;;;;;;;13.85;89.85;99715.47;5046045;28;20057;-61
2022/06/18 11:13:23;;;;;;;26.95;11.68;;;;;;;13.85;90.01;99715.47;5045085;28;20053;-60
2022/06/18 11:16:05;;;;;;;25.60;11.88;;;;;;;13.82;89.74;99711.19;5045265;28;20096;-60
2022/06/18 11:18:45;;;;;;;23.40;10.95;;;;;;;13.70;89.91;99696.75;5046117;28;20147;-61
2022/06/18 11:21:24;;;;;;;30.90;12.80;;;;;;;13.84;89.83;99719.88;5045514;28;20061;-62
2022/06/18 11:23:59;;;;;;;27.75;12.00;;;;;;;13.78;89.94;99720.97;5045325;28;20057;-61
2022/06/18 11:26:42;;;;;;;26.50;12.05;;;;;;;13.82;89.82;99722.53;5045358;28;20113;-62
2022/06/18 11:29:31;;;;;;;33.33;13.07;;;;;;;13.81;89.81;99726.09;5045380;28;20128;-62
2022/06/18 11:32:07;;;;;;;19.60;10.45;;;;;;;13.76;90.14;99719.31;5045219;28;20057;-61
2022/06/18 11:34:40;;;;;;;31.10;12.85;;;;;;;13.80;89.91;99729.66;5045404;28;20061;-62
2022/06/18 11:37:19;;;;;;;31.30;12.55;;;;;;;13.31;90.22;99650.13;5045477;28;20080;-61
2022/06/18 11:39:57;;;;;;;21.88;10.90;;;;;;;13.72;90.23;99729.06;5045139;28;20122;-61
2022/06/18 11:42:35;;;;;;;27.95;12.32;;;;;;;13.52;90.14;99697.47;5045037;28;20632;-61
2022/06/18 11:45:24;;;;;;;27.80;10.88;;;;;;;13.72;90.20;99731.69;5045203;28;20382;-61
2022/06/18 11:48:00;;;;;;;;;;;;;;;13.67;89.90;99733.63;5045697;28;20057;-61
2022/06/18 11:50:35;;;;;;;26.00;10.27;;;;;;;13.64;89.84;99738.16;5044870;28;19984;-62
2022/06/18 11:53:14;;;;;;;30.83;11.32;;;;;;;13.62;89.81;99725.06;5045311;28;20053;-62
2022/06/18 11:55:48;;;;;;;25.02;11.07;;;;;;;13.59;89.97;99730.44;5044898;28;20060;-62
2022/06/18 11:58:24;;;;;;;23.75;11.73;;;;;;;13.54;90.24;99716.63;5044994;28;20065;-62
2022/06/18 12:01:00;;;;;;;22.50;11.18;;;;;;;13.62;90.02;99714.56;5044579;28;20061;-62
2022/06/18 12:03:38;;;;;;;34.05;11.75;;;;;;;13.60;89.97;99721.66;5044057;28;20050;-62
2022/06/18 12:06:16;;;;;;;28.80;11.95;;;;;;;13.57;90.23;99724.38;5044477;28;20239;-62
2022/06/18 12:09:07;;;;;;;36.65;12.48;;;;;;;13.57;90.25;99732.25;5044928;28;20264;-62
2022/06/18 12:11:51;;;;;;;33.25;12.93;;;;;;;13.54;90.47;99727.97;5044931;28;20053;-62
2022/06/18 12:14:30;;;;;;;27.80;13.15;;;;;;;13.60;90.42;99721.66;5044349;28;20102;-62
2022/06/18 12:17:07;;;;;;;23.73;11.55;;;;;;;13.61;90.46;99715.50;5044701;28;20068;-63
2022/06/18 12:19:46;;;;;;;36.25;13.27;;;;;;;13.66;90.54;99721.44;5044328;28;20430;-62